sensor_id;sensor_type;location;lat;lon;timestamp;pressure;altitude;pressure_sealevel;temperature;humidity
48622;BME280;34421;48.944;9.460;2023-06-14T00:00:17;98017.81;;;17.40;48.22
48622;BME280;34421;48.944;9.460;2023-06-14T00:02:42;98021.56;;;17.39;47.55
48622;BME280;34421;48.944;9.460;2023-06-14T00:05:08;98026.34;;;17.22;48.17
48622;BME280;34421;48.944;9.460;2023-06-14T00:07:38;98023.59;;;16.96;47.80
48622;BME280;34421;48.944;9.460;2023-06-14T00:10:04;98018.16;;;16.86;48.25
48622;BME280;34421;48.944;9.460;2023-06-14T00:12:30;98031.34;;;16.88;48.87
48622;BME280;34421;48.944;9.460;2023-06-14T00:14:56;98017.94;;;16.93;48.85
48622;BME280;34421;48.944;9.460;2023-06-14T00:17:22;98024.16;;;17.03;48.00
48622;BME280;34421;48.944;9.460;2023-06-14T00:19:47;98026.59;;;17.05;48.59
48622;BME280;34421;48.944;9.460;2023-06-14T00:22:13;98019.03;;;17.07;48.21
48622;BME280;34421;48.944;9.460;2023-06-14T00:24:38;98023.91;;;17.05;49.07
48622;BME280;34421;48.944;9.460;2023-06-14T00:27:04;98018.50;;;17.10;48.30
48622;BME280;34421;48.944;9.460;2023-06-14T00:29:29;98023.69;;;17.27;48.17
48622;BME280;34421;48.944;9.460;2023-06-14T00:31:55;98022.38;;;17.35;47.91
48622;BME280;34421;48.944;9.460;2023-06-14T00:34:20;98015.38;;;17.28;47.68
48622;BME280;34421;48.944;9.460;2023-06-14T00:36:45;98023.19;;;17.35;47.32
48622;BME280;34421;48.944;9.460;2023-06-14T00:39:11;98012.66;;;17.34;47.25
48622;BME280;34421;48.944;9.460;2023-06-14T00:41:37;98015.09;;;17.30;47.87
48622;BME280;34421;48.944;9.460;2023-06-14T00:44:02;98012.13;;;17.26;47.19
48622;BME280;34421;48.944;9.460;2023-06-14T00:46:28;98013.47;;;17.29;47.64
48622;BME280;34421;48.944;9.460;2023-06-14T00:48:54;98016.44;;;17.33;46.76
48622;BME280;34421;48.944;9.460;2023-06-14T00:51:21;98027.72;;;17.19;47.41
48622;BME280;34421;48.944;9.460;2023-06-14T00:53:46;98026.09;;;17.23;46.82
48622;BME280;34421;48.944;9.460;2023-06-14T00:56:14;98023.66;;;17.12;46.99
48622;BME280;34421;48.944;9.460;2023-06-14T00:58:39;98019.91;;;17.18;46.39
48622;BME280;34421;48.944;9.460;2023-06-14T01:01:05;98019.06;;;17.12;47.15
48622;BME280;34421;48.944;9.460;2023-06-14T01:03:30;98028.25;;;17.21;47.30
48622;BME280;34421;48.944;9.460;2023-06-14T01:06:18;98025.03;;;17.24;46.64
48622;BME280;34421;48.944;9.460;2023-06-14T01:09:01;98029.06;;;17.27;46.71
48622;BME280;34421;48.944;9.460;2023-06-14T01:11:32;98021.56;;;17.34;46.95
48622;BME280;34421;48.944;9.460;2023-06-14T01:13:59;98020.75;;;17.34;46.86
48622;BME280;34421;48.944;9.460;2023-06-14T01:16:29;98023.44;;;17.28;46.61
48622;BME280;34421;48.944;9.460;2023-06-14T01:18:56;98015.91;;;17.36;46.78
48622;BME280;34421;48.944;9.460;2023-06-14T01:21:24;98021.31;;;17.41;46.15
48622;BME280;34421;48.944;9.460;2023-06-14T01:23:50;98019.75;;;17.55;45.70
48622;BME280;34421;48.944;9.460;2023-06-14T01:26:22;98017.56;;;17.47;45.54
48622;BME280;34421;48.944;9.460;2023-06-14T01:28:48;98023.72;;;17.42;45.82
48622;BME280;34421;48.944;9.460;2023-06-14T01:31:19;98017.28;;;17.38;46.33
48622;BME280;34421;48.944;9.460;2023-06-14T01:33:48;98022.16;;;17.46;45.53
48622;BME280;34421;48.944;9.460;2023-06-14T01:36:14;98019.75;;;17.55;45.17
48622;BME280;34421;48.944;9.460;2023-06-14T01:38:42;98018.66;;;17.56;45.35
48622;BME280;34421;48.944;9.460;2023-06-14T01:41:09;98021.63;;;17.49;45.56
48622;BME280;34421;48.944;9.460;2023-06-14T01:43:35;98019.69;;;17.35;45.93
48622;BME280;34421;48.944;9.460;2023-06-14T01:46:01;98024.28;;;17.44;46.00
48622;BME280;34421;48.944;9.460;2023-06-14T01:48:28;98020.22;;;17.42;45.20
48622;BME280;34421;48.944;9.460;2023-06-14T01:50:53;98023.19;;;17.35;45.93
48622;BME280;34421;48.944;9.460;2023-06-14T01:53:18;98019.41;;;17.36;45.79
48622;BME280;34421;48.944;9.460;2023-06-14T01:55:44;98027.75;;;17.29;46.01
48622;BME280;34421;48.944;9.460;2023-06-14T01:58:10;98030.16;;;17.31;45.90
48622;BME280;34421;48.944;9.460;2023-06-14T02:00:36;98028.28;;;17.31;46.34
48622;BME280;34421;48.944;9.460;2023-06-14T02:03:01;98026.06;;;17.13;45.38
48622;BME280;34421;48.944;9.460;2023-06-14T02:05:29;98025.22;;;17.02;46.33
48622;BME280;34421;48.944;9.460;2023-06-14T02:07:56;98027.94;;;17.13;46.42
48622;BME280;34421;48.944;9.460;2023-06-14T02:10:22;98023.16;;;17.20;46.04
48622;BME280;34421;48.944;9.460;2023-06-14T02:12:47;98024.25;;;17.29;45.46
48622;BME280;34421;48.944;9.460;2023-06-14T02:15:13;98028.00;;;17.33;45.19
48622;BME280;34421;48.944;9.460;2023-06-14T02:17:44;98027.38;;;17.05;45.28
48622;BME280;34421;48.944;9.460;2023-06-14T02:20:10;98025.25;;;17.07;45.83
48622;BME280;34421;48.944;9.460;2023-06-14T02:22:36;98019.13;;;16.70;45.87
48622;BME280;34421;48.944;9.460;2023-06-14T02:25:01;98023.81;;;16.42;46.08
48622;BME280;34421;48.944;9.460;2023-06-14T02:27:27;98020.97;;;16.22;47.25
48622;BME280;34421;48.944;9.460;2023-06-14T02:29:52;98023.28;;;16.08;46.75
48622;BME280;34421;48.944;9.460;2023-06-14T02:32:17;98014.94;;;16.04;48.04
48622;BME280;34421;48.944;9.460;2023-06-14T02:34:43;98025.16;;;16.07;47.45
48622;BME280;34421;48.944;9.460;2023-06-14T02:37:08;98025.56;;;16.26;48.41
48622;BME280;34421;48.944;9.460;2023-06-14T02:39:34;98029.69;;;16.39;48.04
48622;BME280;34421;48.944;9.460;2023-06-14T02:42:00;98027.63;;;16.56;47.56
48622;BME280;34421;48.944;9.460;2023-06-14T02:44:26;98026.06;;;16.60;47.57
48622;BME280;34421;48.944;9.460;2023-06-14T02:46:55;98029.56;;;16.61;47.33
48622;BME280;34421;48.944;9.460;2023-06-14T02:49:21;98024.31;;;16.39;47.92
48622;BME280;34421;48.944;9.460;2023-06-14T02:51:46;98034.03;;;16.45;47.31
48622;BME280;34421;48.944;9.460;2023-06-14T02:54:12;98026.44;;;16.37;48.10
48622;BME280;34421;48.944;9.460;2023-06-14T02:56:37;98027.53;;;16.41;47.73
48622;BME280;34421;48.944;9.460;2023-06-14T02:59:02;98026.88;;;16.24;47.36
48622;BME280;34421;48.944;9.460;2023-06-14T03:01:28;98026.69;;;16.35;47.91
48622;BME280;34421;48.944;9.460;2023-06-14T03:04:02;98026.41;;;16.32;49.05
48622;BME280;34421;48.944;9.460;2023-06-14T03:06:30;98033.72;;;16.36;48.07
48622;BME280;34421;48.944;9.460;2023-06-14T03:08:57;98028.88;;;16.38;48.46
48622;BME280;34421;48.944;9.460;2023-06-14T03:11:25;98029.19;;;16.42;47.49
48622;BME280;34421;48.944;9.460;2023-06-14T03:13:51;98031.59;;;16.06;48.70
48622;BME280;34421;48.944;9.460;2023-06-14T03:16:17;98028.94;;;16.11;47.71
48622;BME280;34421;48.944;9.460;2023-06-14T03:18:45;98038.22;;;16.31;48.34
48622;BME280;34421;48.944;9.460;2023-06-14T03:21:10;98032.91;;;16.36;47.80
48622;BME280;34421;48.944;9.460;2023-06-14T03:23:36;98036.94;;;16.38;47.60
48622;BME280;34421;48.944;9.460;2023-06-14T03:26:01;98033.97;;;16.03;47.45
48622;BME280;34421;48.944;9.460;2023-06-14T03:28:27;98043.63;;;15.99;48.61
48622;BME280;34421;48.944;9.460;2023-06-14T03:30:52;98039.00;;;15.94;47.77
48622;BME280;34421;48.944;9.460;2023-06-14T03:33:17;98047.69;;;15.74;47.94
48622;BME280;34421;48.944;9.460;2023-06-14T03:35:43;98051.69;;;15.71;48.80
48622;BME280;34421;48.944;9.460;2023-06-14T03:38:08;98041.22;;;15.48;48.08
48622;BME280;34421;48.944;9.460;2023-06-14T03:40:33;98047.94;;;15.23;49.34
48622;BME280;34421;48.944;9.460;2023-06-14T03:42:59;98043.19;;;15.09;50.68
48622;BME280;34421;48.944;9.460;2023-06-14T03:45:25;98051.16;;;15.25;49.96
48622;BME280;34421;48.944;9.460;2023-06-14T03:47:50;98055.09;;;14.96;49.93
48622;BME280;34421;48.944;9.460;2023-06-14T03:50:17;98056.16;;;14.95;50.24
48622;BME280;34421;48.944;9.460;2023-06-14T03:52:43;98062.94;;;14.80;50.17
48622;BME280;34421;48.944;9.460;2023-06-14T03:55:09;98066.94;;;15.00;51.69
48622;BME280;34421;48.944;9.460;2023-06-14T03:57:34;98062.91;;;14.97;50.15
48622;BME280;34421;48.944;9.460;2023-06-14T03:59:59;98067.00;;;14.66;51.08
48622;BME280;34421;48.944;9.460;2023-06-14T04:02:25;98066.94;;;14.44;50.98
48622;BME280;34421;48.944;9.460;2023-06-14T04:04:53;98070.28;;;14.34;51.40
48622;BME280;34421;48.944;9.460;2023-06-14T04:07:19;98081.41;;;14.26;51.45
48622;BME280;34421;48.944;9.460;2023-06-14T04:09:45;98083.09;;;14.49;52.59
48622;BME280;34421;48.944;9.460;2023-06-14T04:12:10;98084.72;;;15.06;52.59
48622;BME280;34421;48.944;9.460;2023-06-14T04:14:39;98086.91;;;15.31;50.89
48622;BME280;34421;48.944;9.460;2023-06-14T04:17:05;98090.28;;;15.21;50.83
48622;BME280;34421;48.944;9.460;2023-06-14T04:19:31;98088.28;;;15.12;51.32
48622;BME280;34421;48.944;9.460;2023-06-14T04:21:56;98096.25;;;15.07;50.88
48622;BME280;34421;48.944;9.460;2023-06-14T04:24:22;98094.25;;;14.97;51.63
48622;BME280;34421;48.944;9.460;2023-06-14T04:26:48;98099.47;;;14.87;52.12
48622;BME280;34421;48.944;9.460;2023-06-14T04:29:14;98097.34;;;14.89;52.94
48622;BME280;34421;48.944;9.460;2023-06-14T04:31:44;98090.50;;;14.98;52.15
48622;BME280;34421;48.944;9.460;2023-06-14T04:34:10;98095.94;;;15.25;52.19
48622;BME280;34421;48.944;9.460;2023-06-14T04:36:42;98103.28;;;15.35;51.87
48622;BME280;34421;48.944;9.460;2023-06-14T04:39:17;98103.81;;;15.54;51.25
48622;BME280;34421;48.944;9.460;2023-06-14T04:41:49;98100.91;;;15.60;50.32
48622;BME280;34421;48.944;9.460;2023-06-14T04:44:18;98095.25;;;15.57;50.42
48622;BME280;34421;48.944;9.460;2023-06-14T04:46:45;98108.66;;;15.57;50.46
48622;BME280;34421;48.944;9.460;2023-06-14T04:49:16;98110.66;;;15.66;50.83
48622;BME280;34421;48.944;9.460;2023-06-14T04:51:43;98114.22;;;15.99;50.31
48622;BME280;34421;48.944;9.460;2023-06-14T04:54:09;98123.03;;;16.22;49.62
48622;BME280;34421;48.944;9.460;2023-06-14T04:56:41;98114.78;;;16.66;48.59
48622;BME280;34421;48.944;9.460;2023-06-14T04:59:13;98123.00;;;16.81;47.71
48622;BME280;34421;48.944;9.460;2023-06-14T05:01:40;98130.69;;;16.72;47.82
48622;BME280;34421;48.944;9.460;2023-06-14T05:04:06;98124.00;;;16.75;47.84
48622;BME280;34421;48.944;9.460;2023-06-14T05:06:31;98125.53;;;16.66;48.48
48622;BME280;34421;48.944;9.460;2023-06-14T05:08:56;98121.88;;;16.77;48.02
48622;BME280;34421;48.944;9.460;2023-06-14T05:11:22;98125.38;;;16.77;48.46
48622;BME280;34421;48.944;9.460;2023-06-14T05:13:49;98123.94;;;17.02;47.68
48622;BME280;34421;48.944;9.460;2023-06-14T05:16:15;98125.81;;;17.01;48.05
48622;BME280;34421;48.944;9.460;2023-06-14T05:18:42;98119.41;;;17.13;47.89
48622;BME280;34421;48.944;9.460;2023-06-14T05:21:07;98128.59;;;17.22;48.00
48622;BME280;34421;48.944;9.460;2023-06-14T05:23:33;98122.16;;;17.28;48.03
48622;BME280;34421;48.944;9.460;2023-06-14T05:25:59;98128.13;;;17.35;47.97
48622;BME280;34421;48.944;9.460;2023-06-14T05:28:25;98134.06;;;17.42;48.49
48622;BME280;34421;48.944;9.460;2023-06-14T05:30:51;98129.88;;;17.67;49.11
48622;BME280;34421;48.944;9.460;2023-06-14T05:33:16;98138.06;;;18.03;48.10
48622;BME280;34421;48.944;9.460;2023-06-14T05:35:42;98138.09;;;18.33;47.58
48622;BME280;34421;48.944;9.460;2023-06-14T05:38:07;98135.94;;;18.56;46.61
48622;BME280;34421;48.944;9.460;2023-06-14T05:40:33;98133.53;;;18.75;46.52
48622;BME280;34421;48.944;9.460;2023-06-14T05:42:58;98142.41;;;18.90;45.87
48622;BME280;34421;48.944;9.460;2023-06-14T05:45:23;98144.00;;;19.02;45.31
48622;BME280;34421;48.944;9.460;2023-06-14T05:47:49;98137.22;;;19.15;46.62
48622;BME280;34421;48.944;9.460;2023-06-14T05:50:15;98143.41;;;19.25;45.41
48622;BME280;34421;48.944;9.460;2023-06-14T05:52:41;98140.47;;;19.11;44.39
48622;BME280;34421;48.944;9.460;2023-06-14T05:55:06;98134.00;;;19.12;45.04
48622;BME280;34421;48.944;9.460;2023-06-14T05:57:31;98136.13;;;19.26;44.63
48622;BME280;34421;48.944;9.460;2023-06-14T05:59:57;98146.63;;;19.32;44.30
48622;BME280;34421;48.944;9.460;2023-06-14T06:02:22;98141.50;;;19.31;43.80
48622;BME280;34421;48.944;9.460;2023-06-14T06:04:47;98142.88;;;19.33;43.29
48622;BME280;34421;48.944;9.460;2023-06-14T06:07:13;98143.34;;;19.46;42.96
48622;BME280;34421;48.944;9.460;2023-06-14T06:09:38;98151.94;;;19.53;41.71
48622;BME280;34421;48.944;9.460;2023-06-14T06:12:06;98142.28;;;20.75;40.14
48622;BME280;34421;48.944;9.460;2023-06-14T06:14:31;98132.63;;;24.17;34.35
48622;BME280;34421;48.944;9.460;2023-06-14T06:16:57;98131.00;;;27.11;30.60
48622;BME280;34421;48.944;9.460;2023-06-14T06:19:22;98119.63;;;29.55;27.26
48622;BME280;34421;48.944;9.460;2023-06-14T06:21:47;98136.66;;;31.26;23.80
48622;BME280;34421;48.944;9.460;2023-06-14T06:24:13;98129.78;;;32.38;22.06
48622;BME280;34421;48.944;9.460;2023-06-14T06:26:38;98127.72;;;33.16;20.73
48622;BME280;34421;48.944;9.460;2023-06-14T06:29:04;98128.00;;;33.84;19.98
48622;BME280;34421;48.944;9.460;2023-06-14T06:31:30;98123.19;;;34.37;19.21
48622;BME280;34421;48.944;9.460;2023-06-14T06:33:55;98131.94;;;34.77;19.31
48622;BME280;34421;48.944;9.460;2023-06-14T06:36:20;98131.63;;;35.26;18.72
48622;BME280;34421;48.944;9.460;2023-06-14T06:38:47;98133.78;;;35.51;18.19
48622;BME280;34421;48.944;9.460;2023-06-14T06:41:12;98136.47;;;35.95;18.02
48622;BME280;34421;48.944;9.460;2023-06-14T06:43:37;98133.66;;;36.72;17.08
48622;BME280;34421;48.944;9.460;2023-06-14T06:46:03;98133.31;;;36.99;16.51
48622;BME280;34421;48.944;9.460;2023-06-14T06:48:28;98132.56;;;37.23;17.06
48622;BME280;34421;48.944;9.460;2023-06-14T06:50:54;98139.72;;;37.49;16.71
48622;BME280;34421;48.944;9.460;2023-06-14T06:53:19;98139.69;;;37.81;16.26
48622;BME280;34421;48.944;9.460;2023-06-14T06:55:44;98149.56;;;37.90;15.59
48622;BME280;34421;48.944;9.460;2023-06-14T06:58:10;98146.75;;;38.18;16.15
48622;BME280;34421;48.944;9.460;2023-06-14T07:00:35;98145.09;;;38.35;15.86
48622;BME280;34421;48.944;9.460;2023-06-14T07:03:01;98144.50;;;38.76;15.42
48622;BME280;34421;48.944;9.460;2023-06-14T07:05:26;98154.34;;;39.51;14.72
48622;BME280;34421;48.944;9.460;2023-06-14T07:07:52;98153.28;;;39.34;14.88
48622;BME280;34421;48.944;9.460;2023-06-14T07:10:17;98156.09;;;39.34;15.16
48622;BME280;34421;48.944;9.460;2023-06-14T07:12:43;98155.00;;;40.41;14.30
48622;BME280;34421;48.944;9.460;2023-06-14T07:15:09;98151.19;;;40.59;14.04
48622;BME280;34421;48.944;9.460;2023-06-14T07:17:35;98161.47;;;41.23;13.41
48622;BME280;34421;48.944;9.460;2023-06-14T07:20:02;98156.78;;;41.16;13.52
48622;BME280;34421;48.944;9.460;2023-06-14T07:22:41;98156.09;;;42.03;13.15
48622;BME280;34421;48.944;9.460;2023-06-14T07:25:10;98160.13;;;42.02;12.77
48622;BME280;34421;48.944;9.460;2023-06-14T07:27:43;98154.69;;;42.91;12.75
48622;BME280;34421;48.944;9.460;2023-06-14T07:30:09;98148.34;;;44.01;11.48
48622;BME280;34421;48.944;9.460;2023-06-14T07:32:35;98165.50;;;44.74;11.35
48622;BME280;34421;48.944;9.460;2023-06-14T07:35:00;98163.56;;;44.71;10.75
48622;BME280;34421;48.944;9.460;2023-06-14T07:37:26;98165.53;;;44.03;11.62
48622;BME280;34421;48.944;9.460;2023-06-14T07:39:51;98164.19;;;44.37;11.03
48622;BME280;34421;48.944;9.460;2023-06-14T07:42:16;98167.09;;;45.14;10.79
48622;BME280;34421;48.944;9.460;2023-06-14T07:44:42;98166.72;;;44.73;10.71
48622;BME280;34421;48.944;9.460;2023-06-14T07:47:07;98170.63;;;44.50;11.19
48622;BME280;34421;48.944;9.460;2023-06-14T07:49:32;98173.81;;;45.29;10.57
48622;BME280;34421;48.944;9.460;2023-06-14T07:51:58;98168.00;;;45.71;10.26
48622;BME280;34421;48.944;9.460;2023-06-14T07:54:24;98169.13;;;45.74;10.03
48622;BME280;34421;48.944;9.460;2023-06-14T07:56:51;98171.41;;;44.64;10.74
48622;BME280;34421;48.944;9.460;2023-06-14T07:59:17;98166.84;;;44.95;11.06
48622;BME280;34421;48.944;9.460;2023-06-14T08:01:42;98168.50;;;46.13;9.97
48622;BME280;34421;48.944;9.460;2023-06-14T08:04:12;98161.31;;;46.12;10.47
48622;BME280;34421;48.944;9.460;2023-06-14T08:06:38;98168.66;;;44.05;11.65
48622;BME280;34421;48.944;9.460;2023-06-14T08:09:04;98168.22;;;42.56;12.59
48622;BME280;34421;48.944;9.460;2023-06-14T08:11:30;98163.31;;;43.33;12.22
48622;BME280;34421;48.944;9.460;2023-06-14T08:13:55;98167.28;;;45.07;11.22
48622;BME280;34421;48.944;9.460;2023-06-14T08:16:21;98166.38;;;45.83;10.95
48622;BME280;34421;48.944;9.460;2023-06-14T08:18:46;98162.63;;;46.43;10.16
48622;BME280;34421;48.944;9.460;2023-06-14T08:21:11;98172.59;;;45.90;10.34
48622;BME280;34421;48.944;9.460;2023-06-14T08:23:37;98176.34;;;44.18;11.65
48622;BME280;34421;48.944;9.460;2023-06-14T08:26:04;98174.97;;;42.59;12.51
48622;BME280;34421;48.944;9.460;2023-06-14T08:28:29;98169.41;;;43.77;11.85
48622;BME280;34421;48.944;9.460;2023-06-14T08:30:54;98175.19;;;43.37;11.82
48622;BME280;34421;48.944;9.460;2023-06-14T08:33:20;98167.13;;;42.33;12.70
48622;BME280;34421;48.944;9.460;2023-06-14T08:35:46;98176.38;;;41.13;13.41
48622;BME280;34421;48.944;9.460;2023-06-14T08:38:11;98178.84;;;41.58;12.50
48622;BME280;34421;48.944;9.460;2023-06-14T08:40:37;98171.84;;;42.37;12.60
48622;BME280;34421;48.944;9.460;2023-06-14T08:43:03;98184.03;;;43.19;11.39
48622;BME280;34421;48.944;9.460;2023-06-14T08:45:29;98178.88;;;44.41;10.56
48622;BME280;34421;48.944;9.460;2023-06-14T08:47:54;98173.38;;;44.92;10.67
48622;BME280;34421;48.944;9.460;2023-06-14T08:50:25;98184.78;;;45.62;10.02
48622;BME280;34421;48.944;9.460;2023-06-14T08:53:00;98180.41;;;45.96;9.71
48622;BME280;34421;48.944;9.460;2023-06-14T08:55:28;98185.19;;;45.25;10.26
48622;BME280;34421;48.944;9.460;2023-06-14T08:57:56;98185.94;;;45.00;10.00
48622;BME280;34421;48.944;9.460;2023-06-14T09:00:23;98179.31;;;45.33;9.94
48622;BME280;34421;48.944;9.460;2023-06-14T09:02:49;98186.34;;;44.61;10.79
48622;BME280;34421;48.944;9.460;2023-06-14T09:05:15;98183.28;;;44.42;10.83
48622;BME280;34421;48.944;9.460;2023-06-14T09:07:43;98185.84;;;45.04;10.44
48622;BME280;34421;48.944;9.460;2023-06-14T09:10:11;98183.03;;;44.91;10.66
48622;BME280;34421;48.944;9.460;2023-06-14T09:12:37;98179.44;;;44.91;10.76
48622;BME280;34421;48.944;9.460;2023-06-14T09:15:03;98183.16;;;45.26;9.89
48622;BME280;34421;48.944;9.460;2023-06-14T09:17:40;98179.00;;;45.18;9.85
48622;BME280;34421;48.944;9.460;2023-06-14T09:20:08;98178.59;;;44.65;10.04
48622;BME280;34421;48.944;9.460;2023-06-14T09:22:44;98184.72;;;44.47;10.55
48622;BME280;34421;48.944;9.460;2023-06-14T09:25:09;98185.59;;;44.73;9.93
48622;BME280;34421;48.944;9.460;2023-06-14T09:27:35;98183.47;;;45.02;9.95
48622;BME280;34421;48.944;9.460;2023-06-14T09:30:11;98182.59;;;44.93;9.74
48622;BME280;34421;48.944;9.460;2023-06-14T09:32:38;98181.81;;;43.92;11.15
48622;BME280;34421;48.944;9.460;2023-06-14T09:35:07;98176.97;;;43.14;11.53
48622;BME280;34421;48.944;9.460;2023-06-14T09:37:33;98182.19;;;42.96;11.28
48622;BME280;34421;48.944;9.460;2023-06-14T09:39:59;98184.59;;;41.51;12.76
48622;BME280;34421;48.944;9.460;2023-06-14T09:42:25;98196.84;;;41.03;12.98
48622;BME280;34421;48.944;9.460;2023-06-14T09:44:52;98207.78;;;40.90;11.38
48622;BME280;34421;48.944;9.460;2023-06-14T09:47:18;98198.25;;;40.87;12.90
48622;BME280;34421;48.944;9.460;2023-06-14T09:49:44;98188.56;;;41.26;11.70
48622;BME280;34421;48.944;9.460;2023-06-14T09:52:17;98184.59;;;42.38;10.97
48622;BME280;34421;48.944;9.460;2023-06-14T09:54:44;98189.78;;;42.39;11.84
48622;BME280;34421;48.944;9.460;2023-06-14T09:57:21;98188.06;;;41.04;13.17
48622;BME280;34421;48.944;9.460;2023-06-14T09:59:48;98192.91;;;38.93;14.82
48622;BME280;34421;48.944;9.460;2023-06-14T10:02:33;98191.31;;;39.55;13.63
48622;BME280;34421;48.944;9.460;2023-06-14T10:05:05;98186.13;;;40.36;12.50
48622;BME280;34421;48.944;9.460;2023-06-14T10:07:56;98184.44;;;39.14;14.49
48622;BME280;34421;48.944;9.460;2023-06-14T10:10:24;98182.53;;;37.98;15.10
48622;BME280;34421;48.944;9.460;2023-06-14T10:12:50;98197.63;;;37.51;15.68
48622;BME280;34421;48.944;9.460;2023-06-14T10:15:26;98194.81;;;37.08;16.00
48622;BME280;34421;48.944;9.460;2023-06-14T10:18:00;98197.25;;;37.56;15.79
48622;BME280;34421;48.944;9.460;2023-06-14T10:23:18;98194.72;;;35.10;17.11
48622;BME280;34421;48.944;9.460;2023-06-14T10:25:45;98193.78;;;34.61;17.39
48622;BME280;34421;48.944;9.460;2023-06-14T10:28:17;98191.03;;;34.99;16.23
48622;BME280;34421;48.944;9.460;2023-06-14T10:31:15;98190.34;;;36.85;14.78
48622;BME280;34421;48.944;9.460;2023-06-14T10:33:56;98190.06;;;37.98;12.77
48622;BME280;34421;48.944;9.460;2023-06-14T10:39:06;98182.34;;;39.81;11.80
48622;BME280;34421;48.944;9.460;2023-06-14T10:41:37;98172.69;;;40.31;11.86
48622;BME280;34421;48.944;9.460;2023-06-14T10:46:38;98174.72;;;39.40;12.32
48622;BME280;34421;48.944;9.460;2023-06-14T10:49:04;98175.94;;;39.39;12.32
48622;BME280;34421;48.944;9.460;2023-06-14T10:51:38;98175.66;;;39.19;13.28
48622;BME280;34421;48.944;9.460;2023-06-14T10:54:12;98176.91;;;38.27;14.37
48622;BME280;34421;48.944;9.460;2023-06-14T10:56:51;98175.72;;;38.21;14.85
48622;BME280;34421;48.944;9.460;2023-06-14T10:59:18;98171.53;;;38.75;14.06
48622;BME280;34421;48.944;9.460;2023-06-14T11:04:52;98180.69;;;36.43;16.21
48622;BME280;34421;48.944;9.460;2023-06-14T11:10:09;98175.22;;;33.29;18.77
48622;BME280;34421;48.944;9.460;2023-06-14T11:12:38;98177.59;;;33.76;18.37
48622;BME280;34421;48.944;9.460;2023-06-14T11:15:05;98187.91;;;31.97;20.01
48622;BME280;34421;48.944;9.460;2023-06-14T11:17:32;98188.06;;;30.37;21.38
48622;BME280;34421;48.944;9.460;2023-06-14T11:20:11;98191.19;;;30.52;20.63
48622;BME280;34421;48.944;9.460;2023-06-14T11:22:42;98183.25;;;30.62;20.87
48622;BME280;34421;48.944;9.460;2023-06-14T11:25:14;98184.75;;;30.60;20.38
48622;BME280;34421;48.944;9.460;2023-06-14T11:27:42;98188.47;;;30.80;20.62
48622;BME280;34421;48.944;9.460;2023-06-14T11:30:07;98186.47;;;30.64;20.78
48622;BME280;34421;48.944;9.460;2023-06-14T11:32:34;98177.13;;;29.39;23.34
48622;BME280;34421;48.944;9.460;2023-06-14T11:34:59;98180.94;;;28.68;23.91
48622;BME280;34421;48.944;9.460;2023-06-14T11:37:27;98186.50;;;27.88;25.52
48622;BME280;34421;48.944;9.460;2023-06-14T11:39:56;98190.16;;;27.07;26.17
48622;BME280;34421;48.944;9.460;2023-06-14T11:42:22;98197.59;;;26.80;25.72
48622;BME280;34421;48.944;9.460;2023-06-14T11:44:49;98192.94;;;26.89;26.87
48622;BME280;34421;48.944;9.460;2023-06-14T11:47:14;98198.06;;;26.91;27.25
48622;BME280;34421;48.944;9.460;2023-06-14T11:49:39;98199.19;;;26.46;27.92
48622;BME280;34421;48.944;9.460;2023-06-14T11:52:05;98195.84;;;26.67;27.09
48622;BME280;34421;48.944;9.460;2023-06-14T11:54:32;98188.41;;;27.02;26.31
48622;BME280;34421;48.944;9.460;2023-06-14T11:56:58;98190.50;;;26.96;26.32
48622;BME280;34421;48.944;9.460;2023-06-14T11:59:24;98198.75;;;26.35;27.72
48622;BME280;34421;48.944;9.460;2023-06-14T12:01:50;98188.72;;;25.96;28.44
48622;BME280;34421;48.944;9.460;2023-06-14T12:04:23;98186.78;;;25.97;28.83
48622;BME280;34421;48.944;9.460;2023-06-14T12:06:50;98188.44;;;25.66;29.12
48622;BME280;34421;48.944;9.460;2023-06-14T12:09:18;98181.63;;;25.38;29.38
48622;BME280;34421;48.944;9.460;2023-06-14T12:11:44;98182.78;;;25.45;29.13
48622;BME280;34421;48.944;9.460;2023-06-14T12:14:10;98188.03;;;25.82;28.60
48622;BME280;34421;48.944;9.460;2023-06-14T12:16:38;98190.50;;;25.61;28.87
48622;BME280;34421;48.944;9.460;2023-06-14T12:19:17;98180.06;;;25.94;29.14
48622;BME280;34421;48.944;9.460;2023-06-14T12:21:45;98197.84;;;25.83;28.11
48622;BME280;34421;48.944;9.460;2023-06-14T12:24:13;98193.38;;;25.96;28.41
48622;BME280;34421;48.944;9.460;2023-06-14T12:26:39;98188.97;;;26.52;27.43
48622;BME280;34421;48.944;9.460;2023-06-14T12:29:06;98186.38;;;26.21;28.17
48622;BME280;34421;48.944;9.460;2023-06-14T12:31:32;98184.16;;;25.74;28.54
48622;BME280;34421;48.944;9.460;2023-06-14T12:33:57;98180.53;;;25.48;29.48
48622;BME280;34421;48.944;9.460;2023-06-14T12:36:22;98178.75;;;25.43;28.97
48622;BME280;34421;48.944;9.460;2023-06-14T12:38:48;98179.75;;;25.47;29.45
48622;BME280;34421;48.944;9.460;2023-06-14T12:41:14;98173.41;;;25.78;28.66
48622;BME280;34421;48.944;9.460;2023-06-14T12:43:40;98178.47;;;25.53;28.86
48622;BME280;34421;48.944;9.460;2023-06-14T12:46:05;98183.94;;;25.53;28.32
48622;BME280;34421;48.944;9.460;2023-06-14T12:48:31;98169.97;;;26.03;27.24
48622;BME280;34421;48.944;9.460;2023-06-14T12:50:57;98172.56;;;26.78;26.27
48622;BME280;34421;48.944;9.460;2023-06-14T12:53:23;98178.03;;;26.69;26.51
48622;BME280;34421;48.944;9.460;2023-06-14T12:55:48;98171.09;;;26.80;24.88
48622;BME280;34421;48.944;9.460;2023-06-14T12:58:14;98169.44;;;26.97;25.37
48622;BME280;34421;48.944;9.460;2023-06-14T13:00:40;98182.94;;;27.02;25.26
48622;BME280;34421;48.944;9.460;2023-06-14T13:03:05;98184.25;;;26.35;27.85
48622;BME280;34421;48.944;9.460;2023-06-14T13:05:30;98179.28;;;26.11;28.09
48622;BME280;34421;48.944;9.460;2023-06-14T13:07:58;98184.09;;;26.31;27.05
48622;BME280;34421;48.944;9.460;2023-06-14T13:10:24;98179.28;;;26.46;26.20
48622;BME280;34421;48.944;9.460;2023-06-14T13:12:50;98183.16;;;26.19;28.08